Kennedale's Hourly Summary for Saturday, April 15, 2017
Hour Temp
(f)
RH
(%)
Solar Rad.
(MJ/m2)
Rainfall
(in)
Wind
(mph)
4/15/2017 12:00 AM 66 80 0 0 0
4/15/2017 1:00 AM 65 83 0 0 0
4/15/2017 2:00 AM 65 86 0 0 0
4/15/2017 3:00 AM 65 86 0 0 0
4/15/2017 4:00 AM 65 87 0 0 0
4/15/2017 5:00 AM 65 89 0 0 0
4/15/2017 6:00 AM 63 92 0 0 0
4/15/2017 7:00 AM 63 95 0.1 0 0
4/15/2017 8:00 AM 65 89 0.62 0 0
4/15/2017 9:00 AM 69 79 1.26 0 0
4/15/2017 10:00 AM 71 74 1.18 0 0
4/15/2017 11:00 AM 73 69 2.05 0 0
4/15/2017 12:00 PM 75 66 1.93 0 0
4/15/2017 1:00 PM 76 63 1.78 0 0
4/15/2017 2:00 PM 77 61 2.26 0 0
4/15/2017 3:00 PM 78 58 2.17 0 0
4/15/2017 4:00 PM 78 58 1.43 0 0
4/15/2017 5:00 PM 78 58 0.95 0 0
4/15/2017 6:00 PM 77 59 0.76 0 0
4/15/2017 7:00 PM 76 62 0.2 0 0
4/15/2017 8:00 PM 73 69 0.01 0 0
4/15/2017 9:00 PM 71 74 0 0 0
4/15/2017 10:00 PM 69 78 0 0 0
4/15/2017 11:00 PM 68 80 0 0 0
Data Summary 70 74 16.70 0.00 0.00